Terminal Aerodrome Forecast
Issued by NWS

Home | Current Version | Previous Version | Text Only | Print | Product List | Glossary Off
Versions: 1 2 3 4 5 6 7 8 9 10 11 12 13 14 15 16 17 18 19 20 21 22 23 24 25 26 27 28 29 30 31 32 33 34 35 36

000
FTUS43 KLOT 011100 CCA
TAFDPA
TAF COR
KDPA 011138Z 0112/0212 17010KT 6SM BR SCT009 BKN016
     FM011300 12008KT P6SM SCT010 BKN025
     FM011500 20013G20KT P6SM VCTS SCT020 BKN050CB
      TEMPO 0115/0118 VRB10G20KT 3SM SHRA SCT025 OVC035
     FM011800 23015G22KT P6SM SCT030 BKN050
     FM012300 24012KT P6SM SCT030 BKN050 PROB30 0123/0205 3SM TSRA
      SCT020 OVC040CB
     FM021000 30008KT P6SM SCT040=

USA.gov is the U.S. government's official web portal to all federal, state and local government web resources and services.